Terminal Aerodrome Forecast
Issued by NWS Quad Cities IA IL

Home | Current Version | Previous Version | Text Only | Print | Product List | Glossary On
Versions: 1 2 3 4 5 6 7 8 9 10 11 12 13 14 15 16 17 18 19 20 21 22 23 24
000
FTUS43 KDVN 281157 CCA
TAFMLI
TAF COR
KMLI 281157Z 2812/2912 33006KT P6SM VCSH BKN035
      TEMPO 2812/2813 4SM -SHRA BR BKN020
     FM281400 30010KT P6SM BKN100
     FM281900 28014G24KT P6SM SCT050
     FM290100 26006KT P6SM SCT100=

USA.gov is the U.S. government's official web portal to all federal, state and local government web resources and services.